Nekoma, Illinois
Current Conditions -  °F | °C
As of 12:15 PM on Thursday 29 Jan 2015 (Local Time) from KGBG Reporting Station
Drizzle Drizzle  
Wind Chill: 25°   Ceiling: 1400
Heat Index: 35°   Visibility: 7mi
Dew Point: 32°   Wind: 16mph
Humidity: 89%   Direction: 290°WNW
Pressure: 30.1"   Gusts: 21mph
Location:  41.194°N, 90.2383°W
Report Text: KGBG 291815Z AUTO 29014G18KT 7SM -DZ OVC014 02/00 A3010 RMK AO2 T00180001
Loading
Personal Weather Stations






























Interactive Weather Map New forecast layout! Learn more

10-Day Weather Forecast

Advertisements
Track Severe Weather on mobile